Ajax, Louisiana
Current Conditions -  °F | °C
As of 2:55 AM on Sunday 23 Nov 2014 (Local Time) from KIER Reporting Station
Light Rain Light Rain  
Wind Chill: 18°   Ceiling: 1400
Heat Index: 18°   Visibility: 7mi
Dew Point: 17°   Wind: 5mph
Humidity: 98%   Direction: 150°SSE
Pressure: 29.72"   Gusts: NA
Location:  31.7926°N, 93.4001°W
Report Text: KIER 230855Z AUTO 15004KT 7SM -RA OVC014 18/17 A2972 RMK AO2 LTG DSNT S T01760173
Loading
Personal Weather Stations






























Interactive Weather Map New forecast layout! Learn more

10-Day Weather Forecast

Advertisements
Track Severe Weather on mobile